Time,TemperatureF,DewpointF,PressureIn,WindDirection,WindDirectionDegrees,WindSpeedMPH,WindSpeedGustMPH,Humidity,HourlyPrecipIn,Conditions,Clouds,dailyrainin,SoftwareType,DateUTC
2013-05-19 00:01:00,51.1,45.5,29.96,NE,45,0.3,0.4,81,0.00,,,0.00,WUHU216HW,2013-05-19 04:01:00,
2013-05-19 00:02:00,50.9,45.3,29.96,NE,45,0.6,1.1,81,0.00,,,0.00,WUHU216HW,2013-05-19 04:02:00,
2013-05-19 00:08:00,51.1,45.5,29.96,NE,45,0.4,1.1,81,0.00,,,0.00,WUHU216HW,2013-05-19 04:08:00,
2013-05-19 00:13:00,51.1,45.5,29.96,NE,45,0.2,0.9,81,0.00,,,0.00,WUHU216HW,2013-05-19 04:13:00,
2013-05-19 00:18:00,51.1,45.5,29.96,NE,45,0.4,0.7,81,0.00,,,0.00,WUHU216HW,2013-05-19 04:18:00,
2013-05-19 00:23:00,51.3,45.6,29.96,NE,45,0.4,0.7,81,0.00,,,0.00,WUHU216HW,2013-05-19 04:23:00,
2013-05-19 00:28:00,51.3,45.6,29.96,NE,45,1.1,1.3,81,0.00,,,0.00,WUHU216HW,2013-05-19 04:28:00,
2013-05-19 00:33:00,51.3,45.6,29.96,NE,45,0.0,1.3,81,0.00,,,0.00,WUHU216HW,2013-05-19 04:33:00,
2013-05-19 00:38:00,51.3,46.0,29.96,NE,45,1.8,2.2,82,0.00,,,0.00,WUHU216HW,2013-05-19 04:38:00,
2013-05-19 00:43:00,51.3,46.0,29.96,NE,45,0.4,2.2,82,0.00,,,0.00,WUHU216HW,2013-05-19 04:43:00,
2013-05-19 00:49:00,51.3,46.0,29.96,NE,34,0.3,0.9,82,0.00,,,0.00,WUHU216HW,2013-05-19 04:49:00,
2013-05-19 00:54:00,51.3,46.0,29.96,NW,315,0.3,0.4,82,0.00,,,0.00,WUHU216HW,2013-05-19 04:54:00,
2013-05-19 00:59:00,51.1,45.8,29.96,NE,45,1.1,1.1,82,0.00,,,0.00,WUHU216HW,2013-05-19 04:59:00,
2013-05-19 01:04:00,51.3,46.0,29.95,NE,45,0.4,1.1,82,0.00,,,0.00,WUHU216HW,2013-05-19 05:04:00,
2013-05-19 01:09:00,51.3,46.0,29.95,NE,45,0.7,0.7,82,0.00,,,0.00,WUHU216HW,2013-05-19 05:09:00,
2013-05-19 01:14:00,51.3,46.0,29.95,NE,45,0.2,0.7,82,0.00,,,0.00,WUHU216HW,2013-05-19 05:14:00,
2013-05-19 01:19:00,51.1,45.8,29.95,NE,45,0.3,1.3,82,0.00,,,0.00,WUHU216HW,2013-05-19 05:19:00,
2013-05-19 01:24:00,51.1,45.8,29.95,NE,45,0.0,1.3,82,0.00,,,0.00,WUHU216HW,2013-05-19 05:24:00,
2013-05-19 01:30:00,51.1,45.8,29.95,NE,45,0.3,0.4,82,0.00,,,0.00,WUHU216HW,2013-05-19 05:30:00,
2013-05-19 01:35:00,51.1,45.5,29.95,NE,45,0.0,0.4,81,0.00,,,0.00,WUHU216HW,2013-05-19 05:35:00,
2013-05-19 01:40:00,51.1,45.5,29.95,NE,45,0.2,0.2,81,0.00,,,0.00,WUHU216HW,2013-05-19 05:40:00,
2013-05-19 01:45:00,51.3,45.6,29.95,NE,45,0.7,0.7,81,0.00,,,0.00,WUHU216HW,2013-05-19 05:45:00,
2013-05-19 01:50:00,51.3,45.6,29.95,NE,45,0.2,0.7,81,0.00,,,0.00,WUHU216HW,2013-05-19 05:50:00,
2013-05-19 01:55:00,51.3,45.6,29.95,NE,45,0.2,0.7,81,0.00,,,0.00,WUHU216HW,2013-05-19 05:55:00,
2013-05-19 02:00:00,51.3,45.6,29.95,NE,45,0.0,0.4,81,0.00,,,0.00,WUHU216HW,2013-05-19 06:00:00,
2013-05-19 02:05:00,51.3,45.6,29.95,NNE,23,0.0,0.4,81,0.00,,,0.00,WUHU216HW,2013-05-19 06:05:00,
2013-05-19 02:11:00,51.3,45.6,29.95,NNE,23,0.0,0.2,81,0.00,,,0.00,WUHU216HW,2013-05-19 06:11:00,
2013-05-19 02:16:00,51.3,45.6,29.95,NNE,23,0.0,0.2,81,0.00,,,0.00,WUHU216HW,2013-05-19 06:16:00,
2013-05-19 02:21:00,51.1,45.5,29.95,NNE,23,0.4,0.7,81,0.00,,,0.00,WUHU216HW,2013-05-19 06:21:00,
2013-05-19 02:26:00,51.1,45.5,29.96,NE,45,0.2,0.7,81,0.00,,,0.00,WUHU216HW,2013-05-19 06:26:00,
2013-05-19 02:31:00,51.1,45.5,29.96,NE,45,0.0,0.2,81,0.00,,,0.00,WUHU216HW,2013-05-19 06:31:00,
2013-05-19 02:36:00,51.1,45.5,29.96,NW,315,0.0,0.2,81,0.00,,,0.00,WUHU216HW,2013-05-19 06:36:00,
2013-05-19 02:41:00,51.1,45.5,29.96,NW,315,0.2,0.2,81,0.00,,,0.00,WUHU216HW,2013-05-19 06:41:00,
2013-05-19 02:46:00,51.1,45.5,29.96,NW,315,0.2,0.9,81,0.00,,,0.00,WUHU216HW,2013-05-19 06:46:00,
2013-05-19 02:51:00,51.1,45.5,29.96,NW,315,0.4,0.9,81,0.00,,,0.00,WUHU216HW,2013-05-19 06:51:00,
2013-05-19 02:56:00,50.9,45.3,29.96,NW,315,0.4,0.4,81,0.00,,,0.00,WUHU216HW,2013-05-19 06:56:00,
2013-05-19 03:01:00,50.9,45.3,29.96,WSW,247,0.3,0.4,81,0.00,,,0.00,WUHU216HW,2013-05-19 07:01:00,
2013-05-19 03:06:00,50.9,45.3,29.97,WSW,246,0.3,0.4,81,0.00,,,0.00,WUHU216HW,2013-05-19 07:06:00,
2013-05-19 03:12:00,50.9,45.3,29.96,SW,225,0.0,0.4,81,0.00,,,0.00,WUHU216HW,2013-05-19 07:12:00,
2013-05-19 03:17:00,50.8,45.1,29.97,SW,225,0.0,0.2,81,0.00,,,0.00,WUHU216HW,2013-05-19 07:17:00,
2013-05-19 03:22:00,50.8,45.5,29.97,SW,225,0.0,0.0,82,0.00,,,0.00,WUHU216HW,2013-05-19 07:22:00,
2013-05-19 03:27:00,50.8,45.1,29.97,WSW,248,0.7,0.7,81,0.00,,,0.00,WUHU216HW,2013-05-19 07:27:00,
2013-05-19 03:32:00,50.8,45.1,29.97,NNW,338,0.0,0.7,81,0.00,,,0.00,WUHU216HW,2013-05-19 07:32:00,
2013-05-19 03:37:00,50.8,45.5,29.97,ESE,113,0.4,1.1,82,0.00,,,0.00,WUHU216HW,2013-05-19 07:37:00,
2013-05-19 03:42:00,50.8,45.5,29.97,SSW,203,0.2,1.1,82,0.00,,,0.00,WUHU216HW,2013-05-19 07:42:00,
2013-05-19 03:48:00,50.8,45.5,29.97,WNW,293,0.4,0.4,82,0.00,,,0.00,WUHU216HW,2013-05-19 07:48:00,
2013-05-19 03:53:00,50.8,45.5,29.97,SSW,203,0.2,0.4,82,0.00,,,0.00,WUHU216HW,2013-05-19 07:53:00,
2013-05-19 03:58:00,50.8,45.1,29.98,SW,225,0.3,0.4,81,0.00,,,0.00,WUHU216HW,2013-05-19 07:58:00,
2013-05-19 04:03:00,50.8,45.5,29.98,SW,225,0.4,0.4,82,0.00,,,0.00,WUHU216HW,2013-05-19 08:03:00,
2013-05-19 04:08:00,50.6,45.3,29.98,SW,224,0.3,0.4,82,0.00,,,0.00,WUHU216HW,2013-05-19 08:08:00,
2013-05-19 04:13:00,50.6,45.3,29.98,WNW,293,0.4,0.4,82,0.00,,,0.00,WUHU216HW,2013-05-19 08:13:00,
2013-05-19 04:18:00,50.4,45.1,29.98,WNW,293,0.3,0.4,82,0.00,,,0.00,WUHU216HW,2013-05-19 08:18:00,
2013-05-19 04:23:00,50.4,45.1,29.98,NNW,338,0.2,0.9,82,0.00,,,0.00,WUHU216HW,2013-05-19 08:23:00,
2013-05-19 04:28:00,50.2,44.9,29.98,West,270,0.7,0.9,82,0.00,,,0.00,WUHU216HW,2013-05-19 08:28:00,
2013-05-19 04:34:00,50.2,44.9,29.98,NNW,347,0.2,0.9,82,0.00,,,0.00,WUHU216HW,2013-05-19 08:34:00,
2013-05-19 04:39:00,50.0,44.7,29.98,ENE,68,0.2,0.9,82,0.00,,,0.00,WUHU216HW,2013-05-19 08:39:00,
2013-05-19 04:44:00,50.0,44.7,29.98,ENE,68,0.0,0.2,82,0.00,,,0.00,WUHU216HW,2013-05-19 08:44:00,
2013-05-19 04:49:00,50.0,44.7,29.98,SE,124,0.2,0.4,82,0.00,,,0.00,WUHU216HW,2013-05-19 08:49:00,
2013-05-19 04:54:00,50.0,44.7,29.98,SE,135,0.3,0.4,82,0.00,,,0.00,WUHU216HW,2013-05-19 08:54:00,
2013-05-19 04:59:00,50.0,44.7,29.98,SE,135,0.2,0.4,82,0.00,,,0.00,WUHU216HW,2013-05-19 08:59:00,
2013-05-19 05:04:00,50.0,45.0,29.98,North,0,1.1,1.3,83,0.00,,,0.00,WUHU216HW,2013-05-19 09:04:00,
2013-05-19 05:09:00,49.9,44.8,29.99,NNW,338,0.2,1.3,83,0.00,,,0.00,WUHU216HW,2013-05-19 09:09:00,
2013-05-19 05:15:00,49.9,44.8,29.99,NW,315,0.4,0.4,83,0.00,,,0.00,WUHU216HW,2013-05-19 09:15:00,
2013-05-19 05:20:00,49.7,44.6,29.99,NW,315,0.0,0.4,83,0.00,,,0.00,WUHU216HW,2013-05-19 09:20:00,
2013-05-19 05:25:00,49.9,44.8,29.99,WSW,248,0.3,0.4,83,0.00,,,0.00,WUHU216HW,2013-05-19 09:25:00,
2013-05-19 05:30:00,49.7,44.6,29.99,WSW,248,0.4,0.7,83,0.00,,,0.00,WUHU216HW,2013-05-19 09:30:00,
2013-05-19 05:35:00,49.7,44.6,29.99,NE,45,0.4,0.7,83,0.00,,,0.00,WUHU216HW,2013-05-19 09:35:00,
2013-05-19 05:40:00,49.7,44.6,29.99,NE,45,0.0,0.4,83,0.00,,,0.00,WUHU216HW,2013-05-19 09:40:00,
2013-05-19 05:45:00,49.7,44.6,29.99,NW,315,0.2,0.4,83,0.00,,,0.00,WUHU216HW,2013-05-19 09:45:00,
2013-05-19 05:50:00,49.7,44.6,29.99,NW,315,0.0,0.4,83,0.00,,,0.00,WUHU216HW,2013-05-19 09:50:00,
2013-05-19 05:56:00,49.5,44.5,30.00,NW,315,0.0,0.4,83,0.00,,,0.00,WUHU216HW,2013-05-19 09:56:00,
2013-05-19 06:01:00,49.7,44.6,30.00,NNW,338,0.2,0.4,83,0.00,,,0.00,WUHU216HW,2013-05-19 10:01:00,
2013-05-19 06:06:00,49.5,44.5,30.00,WSW,248,0.4,0.7,83,0.00,,,0.00,WUHU216HW,2013-05-19 10:06:00,
2013-05-19 06:11:00,49.7,45.0,30.00,SSE,158,0.0,0.7,84,0.00,,,0.00,WUHU216HW,2013-05-19 10:11:00,
2013-05-19 06:16:00,49.7,44.6,30.00,SSE,158,0.0,0.4,83,0.00,,,0.00,WUHU216HW,2013-05-19 10:16:00,
2013-05-19 06:21:00,49.7,45.0,30.00,SSE,158,0.0,0.0,84,0.00,,,0.00,WUHU216HW,2013-05-19 10:21:00,
2013-05-19 06:26:00,49.9,45.2,30.00,SSE,158,0.2,0.2,84,0.00,,,0.00,WUHU216HW,2013-05-19 10:26:00,
2013-05-19 06:31:00,49.9,45.2,30.00,SSE,158,0.4,0.4,84,0.00,,,0.00,WUHU216HW,2013-05-19 10:31:00,
2013-05-19 06:37:00,49.9,45.2,30.00,SSE,158,0.0,0.4,84,0.00,,,0.00,WUHU216HW,2013-05-19 10:37:00,
2013-05-19 06:42:00,49.9,45.2,30.00,ENE,68,0.6,1.1,84,0.00,,,0.00,WUHU216HW,2013-05-19 10:42:00,
2013-05-19 06:47:00,49.9,45.2,30.00,ENE,68,0.6,1.1,84,0.00,,,0.00,WUHU216HW,2013-05-19 10:47:00,
2013-05-19 06:52:00,49.9,45.2,30.00,NNE,23,0.4,0.9,84,0.00,,,0.00,WUHU216HW,2013-05-19 10:52:00,
2013-05-19 06:57:00,49.7,45.3,30.00,NNE,23,1.1,1.1,85,0.00,,,0.00,WUHU216HW,2013-05-19 10:57:00,
2013-05-19 07:02:00,49.5,44.8,30.00,NE,45,0.2,1.1,84,0.00,,,0.00,WUHU216HW,2013-05-19 11:02:00,
2013-05-19 07:07:00,49.7,45.3,30.00,NE,45,0.4,0.7,85,0.00,,,0.00,WUHU216HW,2013-05-19 11:07:00,
2013-05-19 07:13:00,49.7,45.3,30.01,NE,45,0.9,0.9,85,0.00,,,0.00,WUHU216HW,2013-05-19 11:13:00,
2013-05-19 07:18:00,49.5,44.8,30.01,NE,45,0.9,0.9,84,0.00,,,0.00,WUHU216HW,2013-05-19 11:18:00,
2013-05-19 07:23:00,49.5,44.8,30.01,NNE,23,0.2,0.9,84,0.00,,,0.00,WUHU216HW,2013-05-19 11:23:00,
2013-05-19 07:28:00,49.7,45.3,30.01,NW,315,0.2,0.4,85,0.00,,,0.00,WUHU216HW,2013-05-19 11:28:00,
2013-05-19 07:33:00,49.9,45.5,30.01,NW,315,0.4,0.4,85,0.00,,,0.00,WUHU216HW,2013-05-19 11:33:00,
2013-05-19 07:38:00,50.0,45.6,30.01,NW,315,0.2,0.4,85,0.00,,,0.00,WUHU216HW,2013-05-19 11:38:00,
2013-05-19 07:43:00,50.0,45.6,30.01,ESE,113,0.4,0.4,85,0.00,,,0.00,WUHU216HW,2013-05-19 11:43:00,
2013-05-19 07:48:00,50.0,45.4,30.01,WSW,248,0.2,0.7,84,0.00,,,0.00,WUHU216HW,2013-05-19 11:48:00,
2013-05-19 07:54:00,50.4,45.7,30.01,WSW,248,0.4,0.7,84,0.00,,,0.00,WUHU216HW,2013-05-19 11:54:00,
2013-05-19 07:59:00,50.4,45.7,30.01,WSW,248,0.0,0.4,84,0.00,,,0.00,WUHU216HW,2013-05-19 11:59:00,
2013-05-19 08:04:00,50.6,45.9,30.01,NNW,338,0.7,1.1,84,0.00,,,0.00,WUHU216HW,2013-05-19 12:04:00,
2013-05-19 08:09:00,50.6,45.5,30.02,North,0,0.0,1.1,83,0.00,,,0.00,WUHU216HW,2013-05-19 12:09:00,
2013-05-19 08:14:00,50.9,46.3,30.02,WSW,246,0.9,1.3,84,0.00,,,0.00,WUHU216HW,2013-05-19 12:14:00,
2013-05-19 08:19:00,51.3,46.6,30.02,West,265,0.3,1.3,84,0.00,,,0.00,WUHU216HW,2013-05-19 12:19:00,
2013-05-19 08:24:00,51.5,46.8,30.02,SW,225,0.7,1.6,84,0.00,,,0.00,WUHU216HW,2013-05-19 12:24:00,
2013-05-19 08:29:00,51.7,46.6,30.02,SSW,205,0.3,1.6,83,0.00,,,0.00,WUHU216HW,2013-05-19 12:29:00,
2013-05-19 08:35:00,51.8,46.8,30.02,SE,138,0.3,1.3,83,0.00,,,0.00,WUHU216HW,2013-05-19 12:35:00,
2013-05-19 08:40:00,52.0,46.7,30.02,WSW,248,0.2,1.6,82,0.00,,,0.00,WUHU216HW,2013-05-19 12:40:00,
2013-05-19 08:45:00,52.2,46.9,30.02,South,180,0.0,1.6,82,0.00,,,0.00,WUHU216HW,2013-05-19 12:45:00,
2013-05-19 08:50:00,52.6,47.3,30.02,SW,225,0.4,0.4,82,0.00,,,0.00,WUHU216HW,2013-05-19 12:50:00,
2013-05-19 08:55:00,52.6,47.3,30.02,SW,225,0.2,0.4,82,0.00,,,0.00,WUHU216HW,2013-05-19 12:55:00,
2013-05-19 09:00:00,52.9,47.6,30.02,SW,225,0.3,0.4,82,0.00,,,0.00,WUHU216HW,2013-05-19 13:00:00,
2013-05-19 09:05:00,52.9,47.6,30.02,SW,225,0.4,1.1,82,0.00,,,0.00,WUHU216HW,2013-05-19 13:05:00,
2013-05-19 09:10:00,53.5,47.8,30.02,SW,225,0.3,1.1,81,0.00,,,0.00,WUHU216HW,2013-05-19 13:10:00,
2013-05-19 09:16:00,53.8,48.2,30.03,ENE,68,0.6,1.3,81,0.00,,,0.00,WUHU216HW,2013-05-19 13:16:00,
2013-05-19 09:21:00,54.0,48.1,30.03,NW,315,0.0,1.3,80,0.00,,,0.00,WUHU216HW,2013-05-19 13:21:00,
2013-05-19 09:26:00,54.0,48.1,30.02,WSW,255,0.8,1.3,80,0.00,,,0.00,WUHU216HW,2013-05-19 13:26:00,
2013-05-19 09:31:00,54.0,48.1,30.02,NNW,338,0.4,1.3,80,0.00,,,0.00,WUHU216HW,2013-05-19 13:31:00,
2013-05-19 09:36:00,54.4,48.3,30.02,WSW,248,0.9,1.3,80,0.00,,,0.00,WUHU216HW,2013-05-19 13:36:00,
2013-05-19 09:41:00,55.1,48.7,30.02,West,266,0.3,1.6,79,0.00,,,0.00,WUHU216HW,2013-05-19 13:41:00,
2013-05-19 09:46:00,55.6,49.1,30.02,North,5,0.9,2.9,79,0.00,,,0.00,WUHU216HW,2013-05-19 13:46:00,
2013-05-19 09:51:00,56.2,49.7,30.02,WSW,242,0.9,2.9,79,0.00,,,0.00,WUHU216HW,2013-05-19 13:51:00,
2013-05-19 09:56:00,56.9,50.4,30.02,SW,231,0.8,1.8,79,0.00,,,0.00,WUHU216HW,2013-05-19 13:56:00,
2013-05-19 10:02:00,57.8,50.9,30.02,NNE,23,0.7,1.6,78,0.00,,,0.00,WUHU216HW,2013-05-19 14:02:00,
2013-05-19 10:07:00,59.0,51.8,30.02,SW,222,0.4,1.6,77,0.00,,,0.00,WUHU216HW,2013-05-19 14:07:00,
2013-05-19 10:12:00,59.8,51.8,30.02,WSW,248,1.1,1.6,75,0.00,,,0.00,WUHU216HW,2013-05-19 14:12:00,
2013-05-19 10:17:00,60.5,52.2,30.02,WSW,248,2.5,2.5,74,0.00,,,0.00,WUHU216HW,2013-05-19 14:17:00,
2013-05-19 10:22:00,60.7,52.0,30.02,WSW,239,1.4,3.4,73,0.00,,,0.00,WUHU216HW,2013-05-19 14:22:00,
2013-05-19 10:27:00,60.7,51.7,30.02,North,0,0.9,3.4,72,0.00,,,0.00,WUHU216HW,2013-05-19 14:27:00,
2013-05-19 10:32:00,60.8,51.8,30.01,SSW,203,0.9,1.6,72,0.00,,,0.00,WUHU216HW,2013-05-19 14:32:00,
2013-05-19 10:37:00,61.2,51.9,30.01,SSW,203,1.3,1.6,71,0.00,,,0.00,WUHU216HW,2013-05-19 14:37:00,
2013-05-19 10:43:00,62.1,52.7,30.01,WSW,248,0.4,1.3,71,0.00,,,0.00,WUHU216HW,2013-05-19 14:43:00,
2013-05-19 10:48:00,62.6,52.7,30.02,WSW,248,2.5,2.5,70,0.00,,,0.00,WUHU216HW,2013-05-19 14:48:00,
2013-05-19 10:53:00,63.7,53.8,30.02,SW,235,0.7,2.5,70,0.00,,,0.00,WUHU216HW,2013-05-19 14:53:00,
2013-05-19 10:58:00,64.3,53.9,30.01,WSW,248,1.1,2.5,69,0.00,,,0.00,WUHU216HW,2013-05-19 14:58:00,
2013-05-19 11:03:00,64.6,53.8,30.01,WSW,248,2.7,2.7,68,0.00,,,0.00,WUHU216HW,2013-05-19 15:03:00,
2013-05-19 11:08:00,64.8,53.6,30.01,WSW,238,0.9,2.7,67,0.00,,,0.00,WUHU216HW,2013-05-19 15:08:00,
2013-05-19 11:13:00,65.0,53.3,30.01,NNE,23,1.8,2.7,66,0.00,,,0.00,WUHU216HW,2013-05-19 15:13:00,
2013-05-19 11:18:00,65.5,53.8,30.01,NNE,23,0.4,1.8,66,0.00,,,0.00,WUHU216HW,2013-05-19 15:18:00,
2013-05-19 11:23:00,65.9,52.9,30.01,NNE,23,1.8,2.0,63,0.00,,,0.00,WUHU216HW,2013-05-19 15:23:00,
2013-05-19 11:29:00,66.2,52.8,30.01,North,3,2.2,3.1,62,0.00,,,0.00,WUHU216HW,2013-05-19 15:29:00,
2013-05-19 11:34:00,67.0,53.6,30.00,NE,39,0.9,3.1,62,0.00,,,0.00,WUHU216HW,2013-05-19 15:34:00,
2013-05-19 11:39:00,68.0,54.9,30.00,WSW,252,1.3,2.5,63,0.00,,,0.00,WUHU216HW,2013-05-19 15:39:00,
2013-05-19 11:44:00,69.1,55.5,30.00,SW,215,1.3,2.5,62,0.00,,,0.00,WUHU216HW,2013-05-19 15:44:00,
2013-05-19 11:49:00,69.1,53.2,30.00,NNE,23,2.3,4.0,57,0.00,,,0.00,WUHU216HW,2013-05-19 15:49:00,
2013-05-19 11:54:00,68.8,53.9,30.00,WSW,248,1.1,4.0,59,0.00,,,0.00,WUHU216HW,2013-05-19 15:54:00,
2013-05-19 11:59:00,69.3,53.9,29.99,WSW,248,1.3,3.4,58,0.00,,,0.00,WUHU216HW,2013-05-19 15:59:00,
2013-05-19 12:04:00,70.2,54.7,30.00,WSW,245,2.3,3.4,58,0.00,,,0.00,WUHU216HW,2013-05-19 16:04:00,
2013-05-19 12:10:00,71.5,56.4,30.00,SSW,204,0.6,2.5,59,0.00,,,0.00,WUHU216HW,2013-05-19 16:10:00,
2013-05-19 12:15:00,71.6,55.5,29.99,NNW,338,1.1,2.2,57,0.00,,,0.00,WUHU216HW,2013-05-19 16:15:00,
2013-05-19 12:20:00,72.4,56.2,29.98,SSW,212,1.2,2.5,57,0.00,,,0.00,WUHU216HW,2013-05-19 16:20:00,
2013-05-19 12:25:00,72.9,55.7,29.98,NNW,338,0.0,2.5,55,0.00,,,0.00,WUHU216HW,2013-05-19 16:25:00,
2013-05-19 12:30:00,72.9,55.2,29.98,WSW,248,3.8,3.8,54,0.00,,,0.00,WUHU216HW,2013-05-19 16:30:00,
2013-05-19 12:35:00,72.9,55.2,29.98,SW,229,2.4,4.0,54,0.00,,,0.00,WUHU216HW,2013-05-19 16:35:00,
2013-05-19 12:40:00,73.1,55.4,29.98,WSW,248,0.2,4.0,54,0.00,,,0.00,WUHU216HW,2013-05-19 16:40:00,
2013-05-19 12:45:00,72.7,54.6,29.97,East,90,0.5,2.5,53,0.00,,,0.00,WUHU216HW,2013-05-19 16:45:00,
2013-05-19 12:50:00,72.7,53.5,29.97,NNE,23,1.6,3.1,51,0.00,,,0.00,WUHU216HW,2013-05-19 16:50:00,
2013-05-19 12:55:00,72.9,54.2,29.97,NNE,23,0.7,3.1,52,0.00,,,0.00,WUHU216HW,2013-05-19 16:55:00,
2013-05-19 13:01:00,74.0,54.7,29.97,NNE,23,2.5,2.5,51,0.00,,,0.00,WUHU216HW,2013-05-19 17:01:00,
2013-05-19 13:06:00,74.0,54.7,29.96,NE,36,1.6,3.1,51,0.00,,,0.00,WUHU216HW,2013-05-19 17:06:00,
2013-05-19 13:11:00,74.3,54.5,29.96,NE,52,1.6,3.1,50,0.00,,,0.00,WUHU216HW,2013-05-19 17:11:00,
2013-05-19 13:16:00,74.2,53.7,29.96,NNE,23,3.1,3.8,49,0.00,,,0.00,WUHU216HW,2013-05-19 17:16:00,
2013-05-19 13:21:00,74.0,54.2,29.95,WSW,248,2.5,4.0,50,0.00,,,0.00,WUHU216HW,2013-05-19 17:21:00,
2013-05-19 13:26:00,74.5,54.7,29.95,North,0,0.9,4.0,50,0.00,,,0.00,WUHU216HW,2013-05-19 17:26:00,
2013-05-19 13:31:00,75.2,55.4,29.95,SW,223,1.2,2.5,50,0.00,,,0.00,WUHU216HW,2013-05-19 17:31:00,
2013-05-19 13:36:00,75.8,56.4,29.95,SW,225,3.8,3.8,51,0.00,,,0.00,WUHU216HW,2013-05-19 17:36:00,
2013-05-19 13:41:00,75.8,55.4,29.95,WSW,248,1.8,3.8,49,0.00,,,0.00,WUHU216HW,2013-05-19 17:41:00,
2013-05-19 13:46:00,75.6,55.2,29.94,East,90,0.4,3.8,49,0.00,,,0.00,WUHU216HW,2013-05-19 17:46:00,
2013-05-19 13:52:00,74.9,53.8,29.94,NNE,23,3.6,4.0,48,0.00,,,0.00,WUHU216HW,2013-05-19 17:52:00,
2013-05-19 13:57:00,74.2,53.7,29.94,North,0,1.7,4.0,49,0.00,,,0.00,WUHU216HW,2013-05-19 17:57:00,
2013-05-19 14:02:00,73.6,53.8,29.93,WSW,248,3.6,4.3,50,0.00,,,0.00,WUHU216HW,2013-05-19 18:02:00,
2013-05-19 14:07:00,73.4,53.6,29.93,WSW,248,1.6,4.3,50,0.00,,,0.00,WUHU216HW,2013-05-19 18:07:00,
2013-05-19 14:12:00,73.3,54.0,29.94,WSW,248,1.1,3.6,51,0.00,,,0.00,WUHU216HW,2013-05-19 18:12:00,
2013-05-19 14:17:00,73.3,54.0,29.94,North,0,2.5,2.5,51,0.00,,,0.00,WUHU216HW,2013-05-19 18:17:00,
2013-05-19 14:22:00,72.5,53.4,29.94,West,268,0.8,2.5,51,0.00,,,0.00,WUHU216HW,2013-05-19 18:22:00,
2013-05-19 14:27:00,72.4,53.6,29.93,North,0,0.0,2.5,52,0.00,,,0.00,WUHU216HW,2013-05-19 18:27:00,
2013-05-19 14:33:00,72.4,53.6,29.94,NNE,23,0.4,0.9,52,0.00,,,0.00,WUHU216HW,2013-05-19 18:33:00,
2013-05-19 14:38:00,72.0,54.4,29.93,NNE,23,1.8,2.2,54,0.00,,,0.00,WUHU216HW,2013-05-19 18:38:00,
2013-05-19 14:43:00,71.3,53.7,29.93,NNE,23,1.6,2.2,54,0.00,,,0.00,WUHU216HW,2013-05-19 18:43:00,
2013-05-19 14:48:00,70.9,53.9,29.93,NNE,23,1.5,2.2,55,0.00,,,0.00,WUHU216HW,2013-05-19 18:48:00,
2013-05-19 14:53:00,70.6,53.6,29.93,NE,45,1.9,3.1,55,0.00,,,0.00,WUHU216HW,2013-05-19 18:53:00,
2013-05-19 14:58:00,70.4,53.9,29.93,NNE,23,3.4,3.4,56,0.00,,,0.00,WUHU216HW,2013-05-19 18:58:00,
2013-05-19 15:03:00,70.2,53.7,29.92,East,90,0.7,3.4,56,0.00,,,0.00,WUHU216HW,2013-05-19 19:03:00,
2013-05-19 15:08:00,70.0,54.1,29.93,WSW,242,2.8,4.0,57,0.00,,,0.00,WUHU216HW,2013-05-19 19:08:00,
2013-05-19 15:13:00,69.8,53.9,29.92,NNE,23,1.8,4.0,57,0.00,,,0.00,WUHU216HW,2013-05-19 19:13:00,
2013-05-19 15:19:00,69.5,53.6,29.92,NNE,23,0.2,2.7,57,0.00,,,0.00,WUHU216HW,2013-05-19 19:19:00,
2013-05-19 15:24:00,69.3,53.9,29.92,NNE,23,1.0,2.7,58,0.00,,,0.00,WUHU216HW,2013-05-19 19:24:00,
2013-05-19 15:29:00,68.9,53.6,29.92,WSW,249,1.2,2.0,58,0.00,,,0.00,WUHU216HW,2013-05-19 19:29:00,
2013-05-19 15:34:00,68.8,53.4,29.92,North,0,0.7,2.0,58,0.00,,,0.00,WUHU216HW,2013-05-19 19:34:00,
2013-05-19 15:39:00,68.6,53.7,29.93,WSW,248,0.4,0.7,59,0.00,,,0.00,WUHU216HW,2013-05-19 19:39:00,
2013-05-19 15:44:00,68.2,53.4,29.93,WSW,248,0.2,2.0,59,0.00,,,0.00,WUHU216HW,2013-05-19 19:44:00,
2013-05-19 15:49:00,68.0,53.6,29.92,NNE,23,0.2,2.0,60,0.00,,,0.00,WUHU216HW,2013-05-19 19:49:00,
2013-05-19 15:54:00,67.7,53.7,29.92,NE,45,1.6,2.0,61,0.00,,,0.00,WUHU216HW,2013-05-19 19:54:00,
2013-05-19 15:59:00,67.3,53.8,29.92,West,279,1.6,2.5,62,0.00,,,0.00,WUHU216HW,2013-05-19 19:59:00,
2013-05-19 16:05:00,67.3,53.8,29.92,NNE,23,2.0,2.5,62,0.00,,,0.00,WUHU216HW,2013-05-19 20:05:00,
2013-05-19 16:10:00,67.3,54.3,29.92,NNE,23,1.1,2.5,63,0.00,,,0.00,WUHU216HW,2013-05-19 20:10:00,
2013-05-19 16:15:00,67.3,54.3,29.92,NNE,31,1.7,4.7,63,0.00,,,0.00,WUHU216HW,2013-05-19 20:15:00,
2013-05-19 16:20:00,67.0,53.6,29.92,NNE,23,3.4,4.7,62,0.00,,,0.00,WUHU216HW,2013-05-19 20:20:00,
2013-05-19 16:25:00,66.4,53.5,29.93,WSW,243,2.4,5.1,63,0.00,,,0.00,WUHU216HW,2013-05-19 20:25:00,
2013-05-19 16:30:00,66.1,53.5,29.93,West,279,1.1,5.1,64,0.00,,,0.00,WUHU216HW,2013-05-19 20:30:00,
2013-05-19 16:35:00,65.9,53.4,29.92,West,270,0.9,2.9,64,0.00,,,0.00,WUHU216HW,2013-05-19 20:35:00,
2013-05-19 16:40:00,65.9,53.7,29.93,NNE,23,0.7,2.2,65,0.00,,,0.00,WUHU216HW,2013-05-19 20:40:00,
2013-05-19 16:45:00,65.7,53.6,29.93,West,272,0.3,1.1,65,0.00,,,0.00,WUHU216HW,2013-05-19 20:45:00,
2013-05-19 16:51:00,65.7,53.6,29.93,WSW,238,1.2,2.5,65,0.00,,,0.00,WUHU216HW,2013-05-19 20:51:00,
2013-05-19 16:56:00,65.3,53.3,29.92,East,100,1.5,2.7,65,0.00,,,0.00,WUHU216HW,2013-05-19 20:56:00,
2013-05-19 17:01:00,65.3,53.3,29.92,ENE,64,0.5,2.7,65,0.00,,,0.00,WUHU216HW,2013-05-19 21:01:00,
2013-05-19 17:06:00,65.2,53.1,29.92,NE,36,1.1,1.8,65,0.00,,,0.00,WUHU216HW,2013-05-19 21:06:00,
2013-05-19 17:11:00,65.0,53.3,29.92,NE,45,1.8,1.8,66,0.00,,,0.00,WUHU216HW,2013-05-19 21:11:00,
2013-05-19 17:16:00,64.6,53.0,29.92,North,0,0.3,4.0,66,0.00,,,0.00,WUHU216HW,2013-05-19 21:16:00,
2013-05-19 17:21:00,64.4,53.3,29.92,NE,45,2.2,4.0,67,0.00,,,0.00,WUHU216HW,2013-05-19 21:21:00,
2013-05-19 17:26:00,63.9,52.8,29.92,ENE,68,1.8,4.0,67,0.00,,,0.00,WUHU216HW,2013-05-19 21:26:00,
2013-05-19 17:32:00,63.7,53.0,29.92,North,0,2.2,3.8,68,0.00,,,0.00,WUHU216HW,2013-05-19 21:32:00,
2013-05-19 17:37:00,63.5,52.8,29.92,North,0,0.4,3.1,68,0.00,,,0.00,WUHU216HW,2013-05-19 21:37:00,
2013-05-19 17:42:00,63.4,53.0,29.92,North,0,0.4,1.8,69,0.00,,,0.00,WUHU216HW,2013-05-19 21:42:00,
2013-05-19 17:47:00,63.2,52.8,29.93,WSW,256,1.6,3.4,69,0.00,,,0.00,WUHU216HW,2013-05-19 21:47:00,
2013-05-19 17:52:00,63.0,52.3,29.93,SW,226,0.7,3.4,68,0.00,,,0.00,WUHU216HW,2013-05-19 21:52:00,
2013-05-19 17:57:00,62.6,52.3,29.93,WSW,248,0.4,2.5,69,0.00,,,0.00,WUHU216HW,2013-05-19 21:57:00,
2013-05-19 18:02:00,62.5,52.6,29.93,WSW,248,1.8,2.5,70,0.00,,,0.00,WUHU216HW,2013-05-19 22:02:00,
2013-05-19 18:07:00,62.3,52.4,29.93,WSW,258,1.0,2.9,70,0.00,,,0.00,WUHU216HW,2013-05-19 22:07:00,
2013-05-19 18:12:00,61.9,52.1,29.94,WSW,248,4.7,4.7,70,0.00,,,0.00,WUHU216HW,2013-05-19 22:12:00,
2013-05-19 18:17:00,61.6,52.1,29.93,WSW,251,1.5,4.7,71,0.00,,,0.00,WUHU216HW,2013-05-19 22:17:00,
2013-05-19 18:22:00,60.8,52.2,29.93,WSW,248,0.9,4.7,73,0.00,,,0.00,WUHU216HW,2013-05-19 22:22:00,
2013-05-19 18:28:00,60.1,52.2,29.94,WNW,285,0.7,3.8,75,0.01,,,0.01,WUHU216HW,2013-05-19 22:28:00,
2013-05-19 18:33:00,59.6,52.0,29.93,SW,225,3.4,3.8,76,0.01,,,0.01,WUHU216HW,2013-05-19 22:33:00,
2013-05-19 18:38:00,59.0,52.2,29.93,WSW,248,0.7,3.4,78,0.01,,,0.01,WUHU216HW,2013-05-19 22:38:00,
2013-05-19 18:43:00,58.7,52.2,29.93,NNW,347,0.5,1.8,79,0.01,,,0.01,WUHU216HW,2013-05-19 22:43:00,
2013-05-19 18:48:00,58.5,52.0,29.93,SW,225,0.3,1.8,79,0.01,,,0.01,WUHU216HW,2013-05-19 22:48:00,
2013-05-19 18:53:00,58.3,52.6,29.93,NNE,23,0.9,1.3,81,0.01,,,0.01,WUHU216HW,2013-05-19 22:53:00,
2013-05-19 18:58:00,58.0,51.8,29.93,NNE,23,0.4,1.3,80,0.01,,,0.01,WUHU216HW,2013-05-19 22:58:00,
2013-05-19 19:03:00,57.8,52.0,29.93,NNE,17,0.5,1.6,81,0.01,,,0.01,WUHU216HW,2013-05-19 23:03:00,
2013-05-19 19:09:00,57.4,51.7,29.93,North,0,0.4,1.6,81,0.01,,,0.01,WUHU216HW,2013-05-19 23:09:00,
2013-05-19 19:14:00,57.2,51.5,29.93,NNW,338,0.4,0.9,81,0.01,,,0.01,WUHU216HW,2013-05-19 23:14:00,
2013-05-19 19:19:00,56.9,51.4,29.93,NNE,23,1.0,1.1,82,0.01,,,0.01,WUHU216HW,2013-05-19 23:19:00,
2013-05-19 19:24:00,56.9,51.4,29.93,North,0,0.9,1.1,82,0.00,,,0.01,WUHU216HW,2013-05-19 23:24:00,
2013-05-19 19:29:00,56.7,51.2,29.93,NNW,338,0.2,0.9,82,0.00,,,0.01,WUHU216HW,2013-05-19 23:29:00,
2013-05-19 19:34:00,56.5,51.0,29.93,West,270,0.7,0.9,82,0.00,,,0.01,WUHU216HW,2013-05-19 23:34:00,
2013-05-19 19:39:00,56.3,50.9,29.93,WNW,298,0.2,0.7,82,0.00,,,0.01,WUHU216HW,2013-05-19 23:39:00,
2013-05-19 19:44:00,56.3,50.9,29.93,NNW,336,0.6,0.7,82,0.00,,,0.01,WUHU216HW,2013-05-19 23:44:00,
2013-05-19 19:49:00,56.2,50.7,29.93,NE,45,0.2,0.9,82,0.00,,,0.01,WUHU216HW,2013-05-19 23:49:00,
2013-05-19 19:55:00,56.0,50.5,29.93,NE,45,0.3,0.9,82,0.00,,,0.01,WUHU216HW,2013-05-19 23:55:00,
2013-05-19 20:00:00,55.8,50.3,29.93,NNE,23,0.2,0.7,82,0.00,,,0.01,WUHU216HW,2013-05-20 00:00:00,
2013-05-19 20:05:00,55.8,50.3,29.92,SW,228,0.5,0.7,82,0.00,,,0.01,WUHU216HW,2013-05-20 00:05:00,
2013-05-19 20:10:00,55.6,50.5,29.92,North,0,0.4,1.1,83,0.01,,,0.02,WUHU216HW,2013-05-20 00:10:00,
2013-05-19 20:15:00,55.4,50.3,29.93,North,7,0.6,1.6,83,0.01,,,0.02,WUHU216HW,2013-05-20 00:15:00,
2013-05-19 20:20:00,55.3,50.5,29.93,North,0,0.4,1.6,84,0.01,,,0.02,WUHU216HW,2013-05-20 00:20:00,
2013-05-19 20:25:00,55.1,50.3,29.93,NE,45,0.4,0.7,84,0.01,,,0.02,WUHU216HW,2013-05-20 00:25:00,
2013-05-19 20:30:00,55.1,50.6,29.93,North,0,0.0,2.5,85,0.01,,,0.02,WUHU216HW,2013-05-20 00:30:00,
2013-05-19 20:36:00,55.1,50.6,29.93,NNW,330,0.3,2.5,85,0.01,,,0.02,WUHU216HW,2013-05-20 00:36:00,
2013-05-19 20:41:00,54.9,50.4,29.93,NNW,338,0.0,0.4,85,0.01,,,0.02,WUHU216HW,2013-05-20 00:41:00,
2013-05-19 20:46:00,54.7,50.2,29.93,North,0,0.6,0.9,85,0.01,,,0.02,WUHU216HW,2013-05-20 00:46:00,
2013-05-19 20:51:00,54.7,50.6,29.93,NNE,23,0.4,1.1,86,0.01,,,0.02,WUHU216HW,2013-05-20 00:51:00,
2013-05-19 20:56:00,54.5,50.4,29.93,NNW,341,0.3,1.1,86,0.02,,,0.03,WUHU216HW,2013-05-20 00:56:00,
2013-05-19 21:01:00,54.5,50.4,29.93,North,0,0.9,1.1,86,0.02,,,0.03,WUHU216HW,2013-05-20 01:01:00,
2013-05-19 21:06:00,54.4,50.6,29.93,North,0,0.4,1.1,87,0.03,,,0.04,WUHU216HW,2013-05-20 01:06:00,
2013-05-19 21:11:00,54.4,50.6,29.93,North,0,0.3,1.1,87,0.02,,,0.04,WUHU216HW,2013-05-20 01:11:00,
2013-05-19 21:16:00,54.4,50.6,29.93,NNE,23,0.4,0.4,87,0.02,,,0.04,WUHU216HW,2013-05-20 01:16:00,
2013-05-19 21:21:00,54.4,50.6,29.93,North,0,0.0,0.4,87,0.03,,,0.05,WUHU216HW,2013-05-20 01:21:00,
2013-05-19 21:27:00,54.4,50.6,29.93,NW,315,0.2,0.4,87,0.03,,,0.05,WUHU216HW,2013-05-20 01:27:00,
2013-05-19 21:32:00,54.2,50.4,29.93,NW,315,0.0,0.4,87,0.04,,,0.06,WUHU216HW,2013-05-20 01:32:00,
2013-05-19 21:37:00,54.2,50.7,29.93,NW,315,0.0,0.2,88,0.04,,,0.06,WUHU216HW,2013-05-20 01:37:00,
2013-05-19 21:42:00,54.0,50.5,29.93,NW,315,0.0,0.0,88,0.04,,,0.06,WUHU216HW,2013-05-20 01:42:00,
2013-05-19 21:47:00,54.2,50.4,29.93,NW,315,0.4,0.4,87,0.04,,,0.06,WUHU216HW,2013-05-20 01:47:00,
2013-05-19 21:52:00,54.2,50.7,29.93,NW,315,0.0,0.7,88,0.03,,,0.06,WUHU216HW,2013-05-20 01:52:00,
2013-05-19 21:57:00,54.2,50.7,29.93,NW,315,0.0,0.7,88,0.03,,,0.06,WUHU216HW,2013-05-20 01:57:00,
2013-05-19 22:02:00,54.2,50.7,29.93,NW,315,0.4,0.4,88,0.03,,,0.06,WUHU216HW,2013-05-20 02:02:00,
2013-05-19 22:08:00,54.2,50.7,29.93,NW,315,0.0,0.4,88,0.02,,,0.06,WUHU216HW,2013-05-20 02:08:00,
2013-05-19 22:13:00,54.2,50.7,29.92,NW,315,0.4,0.7,88,0.03,,,0.07,WUHU216HW,2013-05-20 02:13:00,
2013-05-19 22:18:00,54.2,50.7,29.92,NW,315,0.9,0.9,88,0.02,,,0.07,WUHU216HW,2013-05-20 02:18:00,
2013-05-19 22:23:00,54.2,51.0,29.92,NW,315,0.3,0.9,89,0.02,,,0.07,WUHU216HW,2013-05-20 02:23:00,
2013-05-19 22:28:00,54.2,51.0,29.92,North,0,1.1,1.3,89,0.04,,,0.09,WUHU216HW,2013-05-20 02:28:00,
2013-05-19 22:33:00,54.2,51.0,29.92,North,0,0.4,1.3,89,0.03,,,0.09,WUHU216HW,2013-05-20 02:33:00,
2013-05-19 22:38:00,54.4,51.5,29.92,North,0,0.9,1.6,90,0.03,,,0.09,WUHU216HW,2013-05-20 02:38:00,
2013-05-19 22:43:00,54.4,51.5,29.92,NNW,338,0.2,1.6,90,0.03,,,0.09,WUHU216HW,2013-05-20 02:43:00,
2013-05-19 22:48:00,54.4,51.5,29.92,North,0,0.6,1.1,90,0.03,,,0.09,WUHU216HW,2013-05-20 02:48:00,
2013-05-19 22:53:00,54.4,51.5,29.92,North,0,0.5,1.1,90,0.03,,,0.09,WUHU216HW,2013-05-20 02:53:00,
2013-05-19 22:59:00,54.4,51.8,29.91,North,0,0.5,1.1,91,0.03,,,0.09,WUHU216HW,2013-05-20 02:59:00,
2013-05-19 23:04:00,54.4,51.8,29.91,North,0,0.4,1.1,91,0.05,,,0.11,WUHU216HW,2013-05-20 03:04:00,
2013-05-19 23:09:00,54.5,51.9,29.90,North,0,0.7,1.1,91,0.05,,,0.11,WUHU216HW,2013-05-20 03:09:00,
2013-05-19 23:14:00,54.5,51.9,29.90,North,0,0.7,1.1,91,0.05,,,0.12,WUHU216HW,2013-05-20 03:14:00,
2013-05-19 23:19:00,54.5,51.9,29.90,North,0,0.4,1.1,91,0.05,,,0.12,WUHU216HW,2013-05-20 03:19:00,
2013-05-19 23:24:00,54.5,51.9,29.90,North,0,0.4,1.1,91,0.07,,,0.14,WUHU216HW,2013-05-20 03:24:00,
2013-05-19 23:29:00,54.4,51.8,29.90,North,0,0.6,1.1,91,0.05,,,0.14,WUHU216HW,2013-05-20 03:29:00,
2013-05-19 23:34:00,54.4,52.0,29.90,NE,34,1.0,1.6,92,0.05,,,0.14,WUHU216HW,2013-05-20 03:34:00,
2013-05-19 23:40:00,54.4,52.0,29.89,NNE,23,0.9,1.6,92,0.05,,,0.14,WUHU216HW,2013-05-20 03:40:00,
2013-05-19 23:45:00,54.4,52.0,29.89,NNE,23,0.7,1.6,92,0.05,,,0.14,WUHU216HW,2013-05-20 03:45:00,
2013-05-19 23:50:00,54.4,52.0,29.88,NNE,23,0.8,1.6,92,0.07,,,0.16,WUHU216HW,2013-05-20 03:50:00,
2013-05-19 23:55:00,54.4,52.0,29.87,NNE,23,1.8,1.8,92,0.07,,,0.16,WUHU216HW,2013-05-20 03:55:00,